Dalton, New Hampshire
Current Conditions -  °F | °C
As of 10:52 AM on Monday 22 Dec 2014 (Local Time) from KHIE Reporting Station
Overcast Overcast  
Wind Chill: -2°   Ceiling: 3400
Heat Index: -2°   Visibility: 10mi
Dew Point: -4°   Wind: 0mph
Humidity: 82%   Direction: NA
Pressure: 30.34"   Gusts: NA
Location:  44.3374°N, 71.528°W
Report Text: KHIE 221552Z AUTO 00000KT 10SM OVC034 M02/M04 A3034 RMK AO2 SLP291 T10171044
Loading
Personal Weather Stations






























Interactive Weather Map New forecast layout! Learn more

10-Day Weather Forecast

Advertisements
Track Severe Weather on mobile